createdAt,value
2023-05-10T00:00:19.471Z,79.83
2023-05-10T00:02:46.781Z,79.65
2023-05-10T00:05:13.481Z,79.63
2023-05-10T00:07:40.109Z,79.83
2023-05-10T00:10:07.248Z,79.83
2023-05-10T00:12:33.906Z,79.56
2023-05-10T00:15:00.485Z,79.85
2023-05-10T00:17:27.200Z,79.63
2023-05-10T00:19:53.904Z,79.50
2023-05-10T00:22:21.896Z,79.57
2023-05-10T00:24:48.647Z,79.89
2023-05-10T00:27:15.449Z,79.55
2023-05-10T00:29:42.075Z,79.64
2023-05-10T00:32:09.063Z,79.46
2023-05-10T00:34:35.921Z,79.68
2023-05-10T00:37:02.579Z,79.47
2023-05-10T00:39:29.768Z,79.47
2023-05-10T00:41:56.352Z,79.84
2023-05-10T00:44:23.048Z,79.40
2023-05-10T00:46:50.499Z,79.86
2023-05-10T00:49:17.673Z,79.38
2023-05-10T00:51:45.590Z,79.70
2023-05-10T00:54:15.058Z,79.74
2023-05-10T00:56:41.901Z,79.48
2023-05-10T00:59:09.835Z,79.77
2023-05-10T01:01:37.889Z,79.54
2023-05-10T01:04:05.156Z,79.42
2023-05-10T01:06:31.773Z,79.78
2023-05-10T01:08:58.402Z,79.85
2023-05-10T01:11:25.313Z,79.63
2023-05-10T01:13:57.491Z,79.69
2023-05-10T01:16:26.570Z,79.99
2023-05-10T01:18:53.405Z,79.82
2023-05-10T01:21:29.575Z,79.49
2023-05-10T01:24:11.557Z,79.56
2023-05-10T01:27:15.555Z,80.06
2023-05-10T01:30:22.055Z,79.88
2023-05-10T01:33:14.006Z,79.80
2023-05-10T01:35:56.502Z,80.02
2023-05-10T01:38:26.333Z,80.08
2023-05-10T01:41:09.121Z,79.70
2023-05-10T01:43:48.523Z,80.14
2023-05-10T01:46:18.845Z,79.96
2023-05-10T01:48:49.666Z,79.78
2023-05-10T01:51:20.952Z,79.59
2023-05-10T01:53:48.897Z,79.99
2023-05-10T01:56:16.922Z,79.68
2023-05-10T01:58:48.341Z,79.51
2023-05-10T02:01:16.390Z,79.67
2023-05-10T02:03:44.885Z,79.68
2023-05-10T02:06:13.851Z,79.67
2023-05-10T02:08:41.447Z,80.17
2023-05-10T02:11:10.155Z,80.05
2023-05-10T02:13:40.371Z,79.85
2023-05-10T02:16:08.414Z,79.97
2023-05-10T02:18:37.701Z,80.01
2023-05-10T02:21:05.071Z,80.09
2023-05-10T02:23:32.805Z,79.76
2023-05-10T02:26:01.476Z,79.97
2023-05-10T02:28:29.173Z,79.72
2023-05-10T02:30:57.121Z,79.81
2023-05-10T02:33:24.927Z,79.89
2023-05-10T02:35:51.998Z,80.19
2023-05-10T02:38:21.428Z,80.48
2023-05-10T02:40:49.156Z,79.94
2023-05-10T02:43:18.165Z,80.05
2023-05-10T02:45:48.389Z,79.70
2023-05-10T02:48:15.707Z,80.24
2023-05-10T02:50:45.881Z,80.37
2023-05-10T02:53:20.305Z,80.13
2023-05-10T02:55:51.774Z,79.95
2023-05-10T02:58:20.337Z,80.22
2023-05-10T03:00:47.604Z,79.94
2023-05-10T03:03:14.228Z,79.94
2023-05-10T03:05:40.836Z,79.80
2023-05-10T03:08:07.854Z,79.82
2023-05-10T03:10:56.501Z,79.96
2023-05-10T03:14:03.698Z,79.94
2023-05-10T03:16:36.875Z,79.99
2023-05-10T03:19:19.079Z,80.45
2023-05-10T03:21:51.136Z,80.22
2023-05-10T03:24:21.365Z,79.98
2023-05-10T03:26:48.982Z,79.86
2023-05-10T03:29:16.796Z,80.00
2023-05-10T03:31:43.941Z,80.04
2023-05-10T03:34:10.657Z,80.02
2023-05-10T03:36:37.268Z,80.23
2023-05-10T03:39:03.994Z,80.39
2023-05-10T03:41:30.641Z,80.26
2023-05-10T03:43:57.258Z,80.46
2023-05-10T03:46:23.975Z,80.36
2023-05-10T03:48:50.675Z,80.48
2023-05-10T03:51:17.262Z,79.88
2023-05-10T03:53:43.978Z,80.51
2023-05-10T03:56:10.566Z,80.45
2023-05-10T03:58:37.154Z,80.18
2023-05-10T04:01:04.033Z,80.24
2023-05-10T04:03:30.801Z,80.16
2023-05-10T04:06:03.175Z,80.08
2023-05-10T04:08:30.374Z,80.04
2023-05-10T04:11:09.241Z,80.16
2023-05-10T04:13:36.455Z,80.62
2023-05-10T04:16:03.330Z,80.66
2023-05-10T04:18:29.997Z,80.55
2023-05-10T04:20:56.680Z,80.28
2023-05-10T04:23:23.523Z,80.16
2023-05-10T04:25:50.265Z,80.46
2023-05-10T04:28:17.491Z,80.27
2023-05-10T04:30:44.152Z,80.62
2023-05-10T04:33:10.734Z,80.41
2023-05-10T04:35:37.508Z,80.85
2023-05-10T04:38:04.367Z,80.43
2023-05-10T04:40:30.969Z,80.21
2023-05-10T04:42:57.677Z,80.66
2023-05-10T04:45:24.624Z,80.36
2023-05-10T04:47:51.218Z,80.35
2023-05-10T04:50:18.722Z,80.42
2023-05-10T04:52:46.036Z,80.99
2023-05-10T04:55:12.662Z,80.69
2023-05-10T04:57:39.369Z,80.75
2023-05-10T05:00:06.657Z,80.63
2023-05-10T05:02:33.355Z,80.84
2023-05-10T05:05:00.090Z,81.05
2023-05-10T05:07:26.904Z,80.78
2023-05-10T05:09:53.449Z,80.41
2023-05-10T05:12:20.183Z,81.12
2023-05-10T05:14:46.926Z,80.66
2023-05-10T05:17:13.494Z,80.84
2023-05-10T05:19:40.248Z,80.91
2023-05-10T05:22:09.126Z,81.23
2023-05-10T05:24:37.582Z,80.80
2023-05-10T05:27:04.352Z,80.92
2023-05-10T05:29:31.019Z,80.75
2023-05-10T05:31:57.637Z,80.87
2023-05-10T05:34:25.406Z,81.27
2023-05-10T05:36:52.020Z,80.88
2023-05-10T05:39:18.632Z,80.94
2023-05-10T05:41:45.434Z,81.12
2023-05-10T05:44:12.101Z,81.15
2023-05-10T05:46:39.052Z,80.99
2023-05-10T05:49:05.779Z,81.25
2023-05-10T05:51:32.491Z,81.21
2023-05-10T05:53:59.070Z,81.17
2023-05-10T05:56:26.071Z,81.27
2023-05-10T05:58:52.840Z,80.93
2023-05-10T06:01:19.697Z,81.11
2023-05-10T06:03:46.411Z,81.21
2023-05-10T06:06:13.589Z,81.09
2023-05-10T06:08:40.205Z,81.24
2023-05-10T06:11:06.993Z,81.20
2023-05-10T06:13:34.394Z,81.13
2023-05-10T06:16:01.536Z,81.16
2023-05-10T06:18:28.379Z,81.28
2023-05-10T06:20:55.079Z,81.16
2023-05-10T06:23:21.825Z,81.07
2023-05-10T06:25:48.576Z,81.38
2023-05-10T06:28:15.536Z,81.30
2023-05-10T06:30:42.153Z,81.70
2023-05-10T06:33:09.144Z,81.65
2023-05-10T06:35:35.800Z,81.50
2023-05-10T06:38:02.489Z,81.43
2023-05-10T06:40:29.203Z,81.48
2023-05-10T06:42:56.341Z,81.36
2023-05-10T06:45:23.000Z,81.15
2023-05-10T06:47:49.840Z,80.96
2023-05-10T06:50:16.661Z,81.59
2023-05-10T06:52:44.206Z,80.97
2023-05-10T06:55:11.296Z,81.09
2023-05-10T06:57:38.018Z,81.41
2023-05-10T07:00:05.818Z,81.28
2023-05-10T07:02:32.824Z,81.35
2023-05-10T07:05:02.482Z,80.92
2023-05-10T07:07:29.952Z,81.29
2023-05-10T07:09:57.666Z,81.46
2023-05-10T07:12:25.149Z,81.40
2023-05-10T07:14:51.795Z,80.99
2023-05-10T07:17:18.529Z,81.17
2023-05-10T07:19:45.258Z,81.21
2023-05-10T07:22:12.210Z,81.10
2023-05-10T07:24:38.980Z,81.04
2023-05-10T07:27:05.782Z,81.15
2023-05-10T07:29:32.665Z,81.35
2023-05-10T07:31:59.642Z,81.48
2023-05-10T07:34:26.535Z,81.12
2023-05-10T07:36:54.065Z,81.36
2023-05-10T07:39:27.556Z,81.24
2023-05-10T07:41:56.073Z,81.26
2023-05-10T07:44:22.913Z,81.27
2023-05-10T07:46:49.748Z,80.69
2023-05-10T07:49:16.475Z,80.73
2023-05-10T07:51:44.016Z,81.06
2023-05-10T07:54:10.662Z,80.40
2023-05-10T07:56:37.321Z,80.67
2023-05-10T07:59:05.402Z,80.55
2023-05-10T08:01:33.629Z,80.43
2023-05-10T08:04:01.126Z,80.80
2023-05-10T08:06:29.191Z,80.45
2023-05-10T08:08:56.550Z,80.36
2023-05-10T08:11:23.604Z,80.21
2023-05-10T08:13:51.821Z,80.39
2023-05-10T08:16:19.048Z,80.30
2023-05-10T08:18:47.895Z,80.40
2023-05-10T08:21:15.538Z,80.38
2023-05-10T08:23:42.336Z,80.07
2023-05-10T08:26:09.348Z,79.91
2023-05-10T08:28:36.257Z,79.49
2023-05-10T08:31:03.261Z,79.74
2023-05-10T08:33:29.983Z,79.66
2023-05-10T08:35:56.737Z,80.21
2023-05-10T08:38:23.351Z,80.14
2023-05-10T08:40:51.809Z,79.88
2023-05-10T08:43:19.604Z,79.85
2023-05-10T08:45:47.987Z,80.00
2023-05-10T08:48:15.065Z,80.19
2023-05-10T08:50:43.128Z,80.18
2023-05-10T08:53:14.530Z,80.18
2023-05-10T08:55:43.913Z,79.59
2023-05-10T08:58:11.197Z,80.12
2023-05-10T09:00:38.881Z,80.21
2023-05-10T09:03:07.322Z,79.87
2023-05-10T09:05:34.256Z,80.02
2023-05-10T09:08:01.613Z,79.86
2023-05-10T09:10:30.860Z,79.76
2023-05-10T09:12:59.290Z,79.79
2023-05-10T09:15:26.967Z,80.01
2023-05-10T09:17:53.902Z,79.75
2023-05-10T09:20:20.815Z,79.70
2023-05-10T09:22:47.481Z,79.47
2023-05-10T09:25:16.407Z,80.19
2023-05-10T09:27:48.337Z,79.33
2023-05-10T09:30:25.318Z,79.33
2023-05-10T09:32:52.615Z,79.50
2023-05-10T09:35:21.925Z,79.40
2023-05-10T09:37:51.628Z,79.22
2023-05-10T09:40:20.387Z,78.98
2023-05-10T09:43:07.065Z,79.07
2023-05-10T09:45:38.179Z,78.62
2023-05-10T09:48:05.837Z,78.54
2023-05-10T09:50:32.602Z,79.03
2023-05-10T09:53:04.619Z,78.36
2023-05-10T09:55:41.509Z,77.99
2023-05-10T09:58:11.745Z,78.28
2023-05-10T10:00:39.548Z,77.72
2023-05-10T10:03:06.640Z,77.57
2023-05-10T10:05:35.155Z,77.73
2023-05-10T10:08:05.367Z,77.33
2023-05-10T10:10:33.844Z,77.64
2023-05-10T10:13:01.028Z,77.24
2023-05-10T10:15:28.043Z,77.44
2023-05-10T10:17:55.423Z,76.86
2023-05-10T10:20:23.589Z,76.80
2023-05-10T10:22:50.762Z,77.05
2023-05-10T10:25:19.902Z,77.07
2023-05-10T10:27:52.368Z,76.63
2023-05-10T10:30:37.423Z,76.84
2023-05-10T10:33:10.215Z,76.55
2023-05-10T10:35:46.099Z,76.18
2023-05-10T10:38:13.930Z,76.14
2023-05-10T10:40:41.233Z,75.92
2023-05-10T10:43:28.354Z,75.70
2023-05-10T10:46:15.974Z,75.69
2023-05-10T10:48:48.466Z,75.23
2023-05-10T10:51:15.757Z,75.21
2023-05-10T10:53:42.548Z,75.67
2023-05-10T10:56:16.075Z,75.56
2023-05-10T10:58:54.910Z,75.62
2023-05-10T11:01:21.876Z,75.69
2023-05-10T11:04:03.523Z,75.31
2023-05-10T11:06:38.914Z,74.96
2023-05-10T11:09:09.518Z,74.99
2023-05-10T11:11:37.361Z,74.70
2023-05-10T11:14:08.127Z,74.89
2023-05-10T11:16:45.112Z,74.78
2023-05-10T11:19:13.591Z,74.58
2023-05-10T11:22:12.360Z,74.59
2023-05-10T11:24:39.013Z,74.37
2023-05-10T11:27:06.593Z,74.42
2023-05-10T11:29:33.186Z,74.38
2023-05-10T11:32:00.817Z,74.33
2023-05-10T11:34:28.784Z,74.49
2023-05-10T11:36:56.634Z,74.41
2023-05-10T11:39:28.314Z,74.34
2023-05-10T11:41:55.469Z,74.00
2023-05-10T11:44:22.077Z,74.37
2023-05-10T11:46:50.174Z,74.47
2023-05-10T11:49:16.908Z,74.37
2023-05-10T11:51:44.672Z,74.18
2023-05-10T11:54:12.562Z,74.10
2023-05-10T11:56:40.849Z,73.96
2023-05-10T11:59:08.851Z,74.03
2023-05-10T12:01:36.460Z,73.50
2023-05-10T12:04:03.942Z,73.58
2023-05-10T12:06:38.423Z,73.62
2023-05-10T12:09:11.165Z,73.41
2023-05-10T12:11:43.549Z,73.57
2023-05-10T12:14:11.684Z,73.09
2023-05-10T12:16:38.574Z,72.78
2023-05-10T12:19:06.615Z,72.80
2023-05-10T12:21:33.701Z,72.84
2023-05-10T12:24:03.261Z,72.60
2023-05-10T12:26:30.461Z,72.94
2023-05-10T12:29:13.427Z,72.71
2023-05-10T12:31:57.199Z,72.91
2023-05-10T12:34:42.978Z,72.63
2023-05-10T12:37:09.599Z,72.71
2023-05-10T12:39:44.374Z,72.71
2023-05-10T12:42:11.926Z,72.74
2023-05-10T12:44:38.765Z,72.86
2023-05-10T12:47:06.988Z,72.92
2023-05-10T12:49:33.816Z,72.77
2023-05-10T12:52:00.466Z,72.66
2023-05-10T12:54:27.158Z,72.56
2023-05-10T12:56:53.801Z,72.45
2023-05-10T12:59:20.412Z,72.45
2023-05-10T13:01:47.077Z,72.15
2023-05-10T13:04:13.787Z,71.84
2023-05-10T13:06:40.415Z,71.86
2023-05-10T13:09:07.144Z,71.76
2023-05-10T13:11:34.048Z,71.74
2023-05-10T13:14:00.692Z,72.14
2023-05-10T13:16:27.845Z,71.82
2023-05-10T13:18:54.493Z,71.89
2023-05-10T13:21:21.347Z,71.85
2023-05-10T13:23:48.033Z,71.52
2023-05-10T13:26:14.706Z,71.37
2023-05-10T13:28:41.738Z,71.30
2023-05-10T13:31:08.770Z,70.91
2023-05-10T13:33:35.424Z,70.85
2023-05-10T13:36:02.058Z,70.64
2023-05-10T13:38:28.779Z,70.39
2023-05-10T13:40:55.644Z,69.88
2023-05-10T13:43:22.303Z,69.64
2023-05-10T13:45:49.108Z,69.38
2023-05-10T13:48:16.069Z,69.10
2023-05-10T13:50:42.793Z,68.84
2023-05-10T13:53:09.797Z,68.90
2023-05-10T13:55:36.836Z,68.82
2023-05-10T13:58:03.635Z,68.75
2023-05-10T14:00:30.537Z,68.60
2023-05-10T14:02:57.188Z,68.73
2023-05-10T14:05:26.239Z,68.91
2023-05-10T14:07:54.759Z,68.96
2023-05-10T14:10:21.513Z,68.49
2023-05-10T14:12:48.343Z,68.42
2023-05-10T14:15:15.223Z,68.62
2023-05-10T14:17:42.026Z,68.40
2023-05-10T14:20:09.568Z,68.13
2023-05-10T14:22:36.457Z,67.90
2023-05-10T14:25:03.396Z,67.75
2023-05-10T14:27:30.657Z,67.66
2023-05-10T14:29:57.670Z,68.11
2023-05-10T14:32:24.243Z,67.72
2023-05-10T14:34:50.902Z,67.71
2023-05-10T14:37:17.648Z,67.91
2023-05-10T14:39:44.365Z,67.69
2023-05-10T14:42:11.103Z,68.08
2023-05-10T14:44:38.314Z,67.87
2023-05-10T14:47:05.065Z,68.22
2023-05-10T14:49:31.820Z,67.98
2023-05-10T14:51:58.543Z,67.76
2023-05-10T14:54:25.414Z,67.85
2023-05-10T14:56:52.329Z,67.58
2023-05-10T14:59:19.117Z,67.35
2023-05-10T15:01:46.994Z,67.11
2023-05-10T15:04:14.567Z,67.10
2023-05-10T15:06:42.002Z,66.95
2023-05-10T15:09:09.963Z,66.68
2023-05-10T15:11:37.034Z,66.85
2023-05-10T15:14:03.780Z,67.05
2023-05-10T15:16:31.266Z,66.77
2023-05-10T15:18:59.615Z,66.60
2023-05-10T15:21:26.305Z,66.69
2023-05-10T15:23:52.906Z,66.50
2023-05-10T15:26:19.563Z,66.76
2023-05-10T15:28:46.413Z,67.06
2023-05-10T15:31:15.177Z,66.98
2023-05-10T15:33:42.498Z,67.10
2023-05-10T15:36:09.342Z,67.19
2023-05-10T15:38:37.694Z,67.34
2023-05-10T15:41:04.660Z,67.25
2023-05-10T15:43:31.426Z,67.74
2023-05-10T15:45:58.028Z,67.57
2023-05-10T15:48:24.639Z,67.59
2023-05-10T15:50:51.364Z,67.59
2023-05-10T15:53:18.070Z,68.02
2023-05-10T15:55:44.794Z,67.73
2023-05-10T15:58:11.636Z,67.78
2023-05-10T16:00:39.120Z,68.00
2023-05-10T16:03:06.757Z,67.73
2023-05-10T16:05:33.884Z,67.94
2023-05-10T16:08:01.825Z,68.28
2023-05-10T16:10:31.954Z,68.30
2023-05-10T16:12:58.917Z,68.52
2023-05-10T16:15:25.634Z,68.90
2023-05-10T16:17:52.598Z,68.28
2023-05-10T16:20:19.485Z,68.65
2023-05-10T16:22:46.112Z,68.36
2023-05-10T16:25:13.554Z,68.73
2023-05-10T16:27:40.892Z,68.34
2023-05-10T16:30:08.157Z,68.65
2023-05-10T16:32:35.342Z,68.32
2023-05-10T16:35:02.113Z,68.50
2023-05-10T16:37:28.852Z,68.11
2023-05-10T16:39:55.626Z,68.42
2023-05-10T16:42:24.016Z,68.21
2023-05-10T16:44:51.025Z,68.26
2023-05-10T16:47:18.113Z,68.07
2023-05-10T16:49:44.783Z,68.54
2023-05-10T16:52:11.430Z,68.17
2023-05-10T16:54:38.308Z,68.07
2023-05-10T16:57:05.191Z,67.54
2023-05-10T16:59:31.767Z,67.88
2023-05-10T17:01:58.688Z,67.89
2023-05-10T17:04:25.649Z,67.74
2023-05-10T17:06:52.249Z,68.15
2023-05-10T17:09:20.356Z,68.52
2023-05-10T17:11:47.369Z,68.37
2023-05-10T17:14:14.043Z,69.02
2023-05-10T17:16:42.134Z,69.19
2023-05-10T17:19:09.510Z,69.43
2023-05-10T17:21:36.294Z,69.28
2023-05-10T17:24:03.351Z,69.64
2023-05-10T17:26:32.107Z,69.78
2023-05-10T17:28:58.787Z,69.95
2023-05-10T17:31:25.646Z,70.25
2023-05-10T17:33:52.802Z,70.16
2023-05-10T17:36:19.511Z,70.43
2023-05-10T17:38:46.215Z,70.70
2023-05-10T17:41:14.265Z,70.85
2023-05-10T17:43:40.853Z,70.96
2023-05-10T17:46:07.938Z,71.40
2023-05-10T17:48:36.937Z,71.33
2023-05-10T17:51:04.382Z,71.20
2023-05-10T17:53:31.312Z,71.43
2023-05-10T17:56:01.624Z,71.29
2023-05-10T17:58:28.735Z,71.35
2023-05-10T18:00:57.634Z,71.37
2023-05-10T18:03:24.553Z,71.27
2023-05-10T18:05:51.696Z,71.57
2023-05-10T18:08:22.697Z,71.63
2023-05-10T18:10:49.540Z,71.54
2023-05-10T18:13:16.156Z,71.50
2023-05-10T18:15:43.023Z,71.98
2023-05-10T18:18:10.886Z,71.96
2023-05-10T18:20:37.786Z,71.90
2023-05-10T18:23:04.421Z,71.65
2023-05-10T18:25:31.417Z,71.84
2023-05-10T18:27:58.119Z,72.32
2023-05-10T18:30:25.000Z,71.97
2023-05-10T18:32:52.017Z,72.15
2023-05-10T18:35:18.942Z,72.37
2023-05-10T18:37:45.752Z,72.05
2023-05-10T18:40:14.669Z,72.25
2023-05-10T18:42:42.158Z,72.22
2023-05-10T18:45:09.450Z,72.26
2023-05-10T18:47:36.192Z,72.35
2023-05-10T18:50:05.371Z,72.44
2023-05-10T18:52:31.996Z,72.93
2023-05-10T18:54:58.702Z,72.79
2023-05-10T18:57:25.402Z,72.66
2023-05-10T18:59:52.159Z,72.43
2023-05-10T19:02:19.002Z,72.74
2023-05-10T19:04:46.229Z,72.53
2023-05-10T19:07:13.092Z,72.82
2023-05-10T19:09:39.892Z,72.80
2023-05-10T19:12:06.581Z,72.84
2023-05-10T19:14:33.430Z,72.85
2023-05-10T19:17:00.375Z,73.48
2023-05-10T19:19:27.505Z,73.36
2023-05-10T19:21:55.547Z,73.25
2023-05-10T19:24:24.622Z,73.38
2023-05-10T19:26:51.354Z,73.29
2023-05-10T19:29:18.153Z,73.57
2023-05-10T19:31:45.103Z,73.49
2023-05-10T19:34:12.108Z,73.71
2023-05-10T19:36:39.204Z,73.88
2023-05-10T19:39:05.972Z,73.49
2023-05-10T19:41:32.603Z,74.03
2023-05-10T19:43:59.904Z,74.03
2023-05-10T19:46:27.471Z,73.74
2023-05-10T19:48:54.252Z,74.17
2023-05-10T19:51:21.120Z,73.96
2023-05-10T19:53:47.787Z,74.42
2023-05-10T19:56:14.518Z,74.79
2023-05-10T19:58:41.425Z,74.74
2023-05-10T20:01:08.355Z,74.72
2023-05-10T20:03:36.162Z,74.76
2023-05-10T20:06:03.061Z,75.19
2023-05-10T20:08:29.904Z,74.98
2023-05-10T20:10:59.129Z,75.42
2023-05-10T20:13:26.075Z,75.42
2023-05-10T20:15:59.495Z,75.14
2023-05-10T20:18:27.151Z,75.71
2023-05-10T20:20:55.256Z,75.41
2023-05-10T20:23:22.431Z,75.87
2023-05-10T20:25:49.812Z,75.85
2023-05-10T20:28:21.809Z,75.81
2023-05-10T20:30:50.612Z,76.11
2023-05-10T20:33:19.054Z,75.99
2023-05-10T20:35:45.760Z,75.94
2023-05-10T20:38:12.416Z,76.04
2023-05-10T20:40:39.089Z,76.21
2023-05-10T20:43:06.308Z,76.53
2023-05-10T20:45:33.201Z,76.16
2023-05-10T20:48:00.443Z,76.36
2023-05-10T20:50:27.710Z,76.24
2023-05-10T20:52:54.452Z,76.93
2023-05-10T20:55:21.261Z,76.94
2023-05-10T20:57:47.888Z,76.51
2023-05-10T21:00:14.995Z,76.44
2023-05-10T21:02:43.636Z,76.67
2023-05-10T21:05:10.372Z,76.84
2023-05-10T21:07:36.996Z,76.68
2023-05-10T21:10:03.794Z,76.99
2023-05-10T21:12:30.468Z,76.81
2023-05-10T21:14:58.332Z,76.97
2023-05-10T21:17:25.223Z,77.11
2023-05-10T21:19:51.833Z,76.99
2023-05-10T21:22:18.528Z,76.86
2023-05-10T21:24:45.406Z,76.81
2023-05-10T21:27:12.251Z,77.20
2023-05-10T21:29:39.227Z,77.22
2023-05-10T21:32:06.293Z,76.74
2023-05-10T21:34:33.291Z,76.55
2023-05-10T21:37:00.116Z,76.83
2023-05-10T21:39:26.803Z,76.93
2023-05-10T21:41:53.752Z,76.73
2023-05-10T21:44:20.697Z,76.99
2023-05-10T21:46:47.540Z,77.09
2023-05-10T21:49:14.768Z,77.04
2023-05-10T21:51:41.610Z,77.09
2023-05-10T21:54:08.454Z,76.76
2023-05-10T21:56:35.055Z,77.26
2023-05-10T21:59:01.650Z,77.04
2023-05-10T22:01:28.389Z,76.56
2023-05-10T22:03:55.171Z,76.91
2023-05-10T22:06:21.807Z,77.20
2023-05-10T22:08:49.009Z,76.86
2023-05-10T22:11:16.136Z,77.12
2023-05-10T22:13:42.735Z,76.84
2023-05-10T22:16:09.547Z,76.94
2023-05-10T22:18:36.480Z,76.78
2023-05-10T22:21:03.204Z,77.15
2023-05-10T22:23:30.352Z,76.72
2023-05-10T22:26:01.490Z,77.18
2023-05-10T22:28:28.909Z,77.23
2023-05-10T22:30:55.968Z,77.14
2023-05-10T22:33:22.664Z,77.27
2023-05-10T22:35:49.381Z,77.15
2023-05-10T22:38:16.114Z,77.31
2023-05-10T22:40:42.764Z,77.11
2023-05-10T22:43:09.473Z,77.14
2023-05-10T22:45:36.146Z,77.02
2023-05-10T22:48:05.220Z,77.13
2023-05-10T22:50:32.048Z,77.17
2023-05-10T22:52:58.807Z,77.35
2023-05-10T22:55:25.536Z,77.16
2023-05-10T22:57:52.619Z,76.81
2023-05-10T23:00:20.153Z,77.14
2023-05-10T23:02:47.053Z,76.95
2023-05-10T23:05:13.951Z,77.51
2023-05-10T23:07:40.707Z,77.12
2023-05-10T23:10:08.180Z,77.49
2023-05-10T23:12:34.924Z,77.35
2023-05-10T23:15:01.859Z,77.50
2023-05-10T23:17:28.627Z,77.38
2023-05-10T23:19:55.366Z,77.51
2023-05-10T23:22:22.056Z,77.53
2023-05-10T23:24:48.729Z,77.44
2023-05-10T23:27:15.442Z,77.57
2023-05-10T23:29:42.286Z,77.55
2023-05-10T23:32:09.028Z,77.10
2023-05-10T23:34:35.765Z,77.21
2023-05-10T23:37:02.947Z,77.57
2023-05-10T23:39:29.547Z,77.56
2023-05-10T23:41:56.562Z,77.17
2023-05-10T23:44:23.529Z,77.38
2023-05-10T23:46:50.271Z,77.39
2023-05-10T23:49:17.372Z,77.36
2023-05-10T23:51:44.260Z,77.96
2023-05-10T23:54:11.008Z,77.62
2023-05-10T23:56:37.649Z,77.79
2023-05-10T23:59:05.995Z,77.62
